createdAt,value
2022-12-06T00:00:09.070Z,7.60
2022-12-06T00:02:37.053Z,7.70
2022-12-06T00:05:06.210Z,7.60
2022-12-06T00:07:34.223Z,7.50
2022-12-06T00:10:03.589Z,7.50
2022-12-06T00:12:31.577Z,7.50
2022-12-06T00:14:59.577Z,7.60
2022-12-06T00:17:28.480Z,7.60
2022-12-06T00:19:56.724Z,7.50
2022-12-06T00:22:24.828Z,7.50
2022-12-06T00:24:52.809Z,7.50
2022-12-06T00:27:22.089Z,7.60
2022-12-06T00:29:50.056Z,7.60
2022-12-06T00:32:19.813Z,7.50
2022-12-06T00:34:48.004Z,7.60
2022-12-06T00:37:15.941Z,7.50
2022-12-06T00:39:43.915Z,7.70
2022-12-06T00:42:11.876Z,7.80
2022-12-06T00:44:41.209Z,7.90
2022-12-06T00:47:09.231Z,7.90
2022-12-06T00:49:37.164Z,7.90
2022-12-06T00:52:05.540Z,8.00
2022-12-06T00:54:33.483Z,7.80
2022-12-06T00:57:01.447Z,7.70
2022-12-06T00:59:29.413Z,7.60
2022-12-06T01:01:58.871Z,7.70
2022-12-06T01:04:26.842Z,7.80
2022-12-06T01:06:54.787Z,7.70
2022-12-06T01:09:22.739Z,7.60
2022-12-06T01:11:50.749Z,7.30
2022-12-06T01:14:18.680Z,7.20
2022-12-06T01:16:46.667Z,7.20
2022-12-06T01:19:16.092Z,7.20
2022-12-06T01:21:44.056Z,7.30
2022-12-06T01:24:12.044Z,7.30
2022-12-06T01:26:40.012Z,7.30
2022-12-06T01:29:07.991Z,7.40
2022-12-06T01:31:38.912Z,7.20
2022-12-06T01:34:08.194Z,7.30
2022-12-06T01:36:37.518Z,7.10
2022-12-06T01:39:10.395Z,7.20
2022-12-06T01:41:39.660Z,7.20
2022-12-06T01:44:08.262Z,7.30
2022-12-06T01:46:39.639Z,7.10
2022-12-06T01:49:15.674Z,7.10
2022-12-06T01:51:49.390Z,7.30
2022-12-06T01:54:21.881Z,7.40
2022-12-06T01:56:51.657Z,7.40
2022-12-06T01:59:20.266Z,7.30
2022-12-06T02:01:48.726Z,7.20
2022-12-06T02:04:18.763Z,7.10
2022-12-06T02:06:48.558Z,7.00
2022-12-06T02:09:17.783Z,6.90
2022-12-06T02:11:47.338Z,6.90
2022-12-06T02:14:22.305Z,6.80
2022-12-06T02:17:13.928Z,7.00
2022-12-06T02:20:01.254Z,7.10
2022-12-06T02:22:44.647Z,7.10
2022-12-06T02:25:34.221Z,7.00
2022-12-06T02:28:20.546Z,6.80
2022-12-06T02:30:55.512Z,6.90
2022-12-06T02:33:29.838Z,6.80
2022-12-06T02:36:05.312Z,6.90
2022-12-06T02:38:36.494Z,6.90
2022-12-06T02:41:11.567Z,6.80
2022-12-06T02:43:42.986Z,6.90
2022-12-06T02:46:15.417Z,6.80
2022-12-06T02:48:44.509Z,6.60
2022-12-06T02:51:15.439Z,6.70
2022-12-06T02:53:46.983Z,6.70
2022-12-06T02:56:17.045Z,6.70
2022-12-06T02:58:45.096Z,6.50
2022-12-06T03:01:18.145Z,6.70
2022-12-06T03:04:08.234Z,6.70
2022-12-06T03:06:55.709Z,6.80
2022-12-06T03:09:35.914Z,6.50
2022-12-06T03:12:11.371Z,6.60
2022-12-06T03:14:46.738Z,6.60
2022-12-06T03:17:24.006Z,6.60
2022-12-06T03:19:59.053Z,6.50
2022-12-06T03:22:38.270Z,6.60
2022-12-06T03:25:09.099Z,6.90
2022-12-06T03:27:37.583Z,6.90
2022-12-06T03:30:09.632Z,6.70
2022-12-06T03:32:41.530Z,6.80
2022-12-06T03:35:13.064Z,6.90
2022-12-06T03:37:45.645Z,7.20
2022-12-06T03:40:19.514Z,7.10
2022-12-06T03:42:48.851Z,7.10
2022-12-06T03:45:17.964Z,7.10
2022-12-06T03:47:54.256Z,7.10
2022-12-06T03:50:27.065Z,7.00
2022-12-06T03:52:55.260Z,7.00
2022-12-06T03:55:23.380Z,7.00
2022-12-06T03:57:51.356Z,7.20
2022-12-06T04:00:19.873Z,7.40
2022-12-06T04:02:49.253Z,7.50
2022-12-06T04:05:17.322Z,7.30
2022-12-06T04:07:45.364Z,7.20
2022-12-06T04:10:13.440Z,7.30
2022-12-06T04:12:59.008Z,7.20
2022-12-06T04:15:27.850Z,7.40
2022-12-06T04:18:13.857Z,7.30
2022-12-06T04:21:04.840Z,7.30
2022-12-06T04:23:35.517Z,7.20
2022-12-06T04:26:04.706Z,7.30
2022-12-06T04:28:50.255Z,7.40
2022-12-06T04:31:35.726Z,7.50
2022-12-06T04:34:22.873Z,7.70
2022-12-06T04:37:08.987Z,7.60
2022-12-06T04:39:37.342Z,7.60
2022-12-06T04:42:22.967Z,7.30
2022-12-06T04:44:50.958Z,7.20
2022-12-06T04:47:19.098Z,7.20
2022-12-06T04:49:48.637Z,7.40
2022-12-06T04:52:17.293Z,7.50
2022-12-06T04:54:45.338Z,7.40
2022-12-06T04:57:15.286Z,7.50
2022-12-06T04:59:46.191Z,7.60
2022-12-06T05:02:16.479Z,7.80
2022-12-06T05:04:44.448Z,7.80
2022-12-06T05:07:13.770Z,8.00
2022-12-06T05:09:41.758Z,7.90
2022-12-06T05:12:09.807Z,7.80
2022-12-06T05:14:37.806Z,7.70
2022-12-06T05:17:05.787Z,7.60
2022-12-06T05:19:33.860Z,7.70
2022-12-06T05:22:01.878Z,7.70
2022-12-06T05:24:31.300Z,7.60
2022-12-06T05:26:59.315Z,7.50
2022-12-06T05:29:27.292Z,7.20
2022-12-06T05:31:55.282Z,7.30
2022-12-06T05:34:24.844Z,7.40
2022-12-06T05:36:52.828Z,7.30
2022-12-06T05:39:20.800Z,7.00
2022-12-06T05:41:50.103Z,7.00
2022-12-06T05:44:18.123Z,7.10
2022-12-06T05:46:46.103Z,7.10
2022-12-06T05:49:14.078Z,7.20
2022-12-06T05:51:42.062Z,7.10
2022-12-06T05:54:10.016Z,7.10
2022-12-06T05:56:37.983Z,7.00
2022-12-06T05:59:07.308Z,7.00
2022-12-06T06:01:35.305Z,7.30
2022-12-06T06:04:03.235Z,7.30
2022-12-06T06:06:31.190Z,7.20
2022-12-06T06:08:59.155Z,7.40
2022-12-06T06:11:27.500Z,7.40
2022-12-06T06:13:55.492Z,7.40
2022-12-06T06:16:24.873Z,7.50
2022-12-06T06:18:52.897Z,7.50
2022-12-06T06:21:20.892Z,7.50
2022-12-06T06:23:48.931Z,7.40
2022-12-06T06:26:17.038Z,7.30
2022-12-06T06:28:45.128Z,7.30
2022-12-06T06:31:13.180Z,7.50
2022-12-06T06:33:42.634Z,7.50
2022-12-06T06:36:11.172Z,7.40
2022-12-06T06:38:39.285Z,7.60
2022-12-06T06:41:08.014Z,7.50
2022-12-06T06:43:36.155Z,7.40
2022-12-06T06:46:07.013Z,7.50
2022-12-06T06:48:37.537Z,7.50
2022-12-06T06:51:09.287Z,7.60
2022-12-06T06:53:37.802Z,7.70
2022-12-06T06:56:06.617Z,7.70
2022-12-06T06:58:34.999Z,7.60
2022-12-06T07:01:05.645Z,7.50
2022-12-06T07:03:34.824Z,7.70
2022-12-06T07:06:05.609Z,7.30
2022-12-06T07:08:35.145Z,7.40
2022-12-06T07:11:03.475Z,7.20
2022-12-06T07:13:32.485Z,7.40
2022-12-06T07:16:00.590Z,7.50
2022-12-06T07:18:29.148Z,7.60
2022-12-06T07:21:01.832Z,7.50
2022-12-06T07:23:29.805Z,7.60
2022-12-06T07:26:03.525Z,7.50
2022-12-06T07:28:31.530Z,7.60
2022-12-06T07:30:59.682Z,7.80
2022-12-06T07:33:27.690Z,7.80
2022-12-06T07:36:12.833Z,7.60
2022-12-06T07:38:42.314Z,7.60
2022-12-06T07:41:31.066Z,7.70
2022-12-06T07:44:17.673Z,7.70
2022-12-06T07:46:46.273Z,7.60
2022-12-06T07:49:16.515Z,7.50
2022-12-06T07:51:44.683Z,7.50
2022-12-06T07:54:13.742Z,7.60
2022-12-06T07:56:44.144Z,7.70
2022-12-06T07:59:12.854Z,7.60
2022-12-06T08:01:40.985Z,7.40
2022-12-06T08:04:09.459Z,7.60
2022-12-06T08:06:38.013Z,7.60
2022-12-06T08:09:06.871Z,7.60
2022-12-06T08:11:34.962Z,7.70
2022-12-06T08:14:04.690Z,7.60
2022-12-06T08:16:32.783Z,7.70
2022-12-06T08:19:00.922Z,7.60
2022-12-06T08:21:28.938Z,7.60
2022-12-06T08:23:56.957Z,7.70
2022-12-06T08:26:25.190Z,7.80
2022-12-06T08:28:53.605Z,7.80
2022-12-06T08:31:25.121Z,7.90
2022-12-06T08:33:53.300Z,8.20
2022-12-06T08:36:23.083Z,8.20
2022-12-06T08:38:52.630Z,8.30
2022-12-06T08:41:38.828Z,8.40
2022-12-06T08:44:07.272Z,8.20
2022-12-06T08:46:37.076Z,8.00
2022-12-06T08:49:05.500Z,8.20
2022-12-06T08:51:37.294Z,8.10
2022-12-06T08:54:06.907Z,8.10
2022-12-06T08:56:35.586Z,7.90
2022-12-06T08:59:03.556Z,8.10
2022-12-06T09:01:37.661Z,8.10
2022-12-06T09:04:09.590Z,8.30
2022-12-06T09:06:39.836Z,8.30
2022-12-06T09:09:08.955Z,8.30
2022-12-06T09:11:36.975Z,8.40
2022-12-06T09:14:05.516Z,8.50
2022-12-06T09:16:33.596Z,8.30
2022-12-06T09:19:01.996Z,8.40
2022-12-06T09:21:32.954Z,8.40
2022-12-06T09:24:01.198Z,8.30
2022-12-06T09:26:29.907Z,8.40
2022-12-06T09:28:59.111Z,8.30
2022-12-06T09:31:27.819Z,8.30
2022-12-06T09:33:55.904Z,8.30
2022-12-06T09:36:25.743Z,8.20
2022-12-06T09:39:00.295Z,8.50
2022-12-06T09:42:18.165Z,8.20
2022-12-06T09:45:07.485Z,8.20
2022-12-06T09:47:45.273Z,8.20
2022-12-06T09:50:23.924Z,8.20
2022-12-06T09:53:05.739Z,8.20
2022-12-06T09:55:48.245Z,8.20
2022-12-06T09:58:27.918Z,8.10
2022-12-06T10:01:06.800Z,8.10
2022-12-06T10:04:02.947Z,8.20
2022-12-06T10:06:38.200Z,8.30
2022-12-06T10:09:25.359Z,8.20
2022-12-06T10:12:11.789Z,8.00
2022-12-06T10:14:57.480Z,7.90
2022-12-06T10:17:32.301Z,7.80
2022-12-06T10:20:08.697Z,7.80
2022-12-06T10:22:48.109Z,7.80
2022-12-06T10:25:22.416Z,7.80
2022-12-06T10:28:02.067Z,7.80
2022-12-06T10:30:30.142Z,7.80
2022-12-06T10:33:06.590Z,7.90
2022-12-06T10:35:42.806Z,7.80
2022-12-06T10:38:20.543Z,7.90
2022-12-06T10:40:56.891Z,7.80
2022-12-06T10:43:30.824Z,7.80
2022-12-06T10:46:25.545Z,7.70
2022-12-06T10:49:01.789Z,7.70
2022-12-06T10:51:36.989Z,7.60
2022-12-06T10:54:16.159Z,7.60
2022-12-06T10:56:46.257Z,7.50
2022-12-06T10:59:27.391Z,7.50
2022-12-06T11:01:59.942Z,7.40
2022-12-06T11:04:33.535Z,7.40
2022-12-06T11:07:06.922Z,7.30
2022-12-06T11:09:40.691Z,7.30
2022-12-06T11:12:26.633Z,7.30
2022-12-06T11:15:05.484Z,7.30
2022-12-06T11:17:37.742Z,7.40
2022-12-06T11:20:17.406Z,7.30
2022-12-06T11:22:51.482Z,7.30
2022-12-06T11:25:28.084Z,7.30
2022-12-06T11:28:01.858Z,7.30
2022-12-06T11:30:33.802Z,7.20
2022-12-06T11:33:02.957Z,7.20
2022-12-06T11:35:30.946Z,7.10
2022-12-06T11:38:02.533Z,7.00
2022-12-06T11:40:33.487Z,6.90
2022-12-06T11:43:07.003Z,6.90
2022-12-06T11:45:40.310Z,6.90
2022-12-06T11:48:15.003Z,7.00
2022-12-06T11:50:44.796Z,7.10
2022-12-06T11:53:20.384Z,7.00
2022-12-06T11:55:52.539Z,7.10
2022-12-06T11:58:27.897Z,7.10
2022-12-06T12:01:03.619Z,7.00
2022-12-06T12:03:33.929Z,7.10
2022-12-06T12:06:10.689Z,7.10
2022-12-06T12:08:39.232Z,7.20
2022-12-06T12:11:07.589Z,7.40
2022-12-06T12:13:48.602Z,7.40
2022-12-06T12:16:21.744Z,7.40
2022-12-06T12:18:56.436Z,7.30
2022-12-06T12:21:37.243Z,7.30
2022-12-06T12:24:07.295Z,7.30
2022-12-06T12:26:41.430Z,7.40
2022-12-06T12:29:18.709Z,7.40
2022-12-06T12:31:53.859Z,7.30
2022-12-06T12:34:23.756Z,7.40
2022-12-06T12:36:55.087Z,7.40
2022-12-06T12:39:26.432Z,7.20
2022-12-06T12:41:54.667Z,7.40
2022-12-06T12:44:37.716Z,7.40
2022-12-06T12:47:18.454Z,7.40
2022-12-06T12:50:02.212Z,7.50
2022-12-06T12:52:32.386Z,7.40
2022-12-06T12:55:02.408Z,7.40
2022-12-06T12:57:30.851Z,7.20
2022-12-06T12:59:59.174Z,7.10
2022-12-06T13:02:30.558Z,7.00
2022-12-06T13:05:31.306Z,7.10
2022-12-06T13:07:53.105Z,7.10
2022-12-06T13:10:25.448Z,7.00
2022-12-06T13:12:56.996Z,7.00
2022-12-06T13:15:32.293Z,6.90
2022-12-06T13:18:07.608Z,7.00
2022-12-06T13:20:36.653Z,7.00
2022-12-06T13:23:09.213Z,7.00
2022-12-06T13:25:38.068Z,7.00
2022-12-06T13:28:14.261Z,7.00
2022-12-06T13:30:43.243Z,7.00
2022-12-06T13:33:21.377Z,7.10
2022-12-06T13:35:58.346Z,7.10
2022-12-06T13:38:32.184Z,7.10
2022-12-06T13:41:01.034Z,7.10
2022-12-06T13:43:53.039Z,7.30
2022-12-06T13:46:26.647Z,7.30
2022-12-06T13:48:57.478Z,7.40
2022-12-06T13:51:47.876Z,7.20
2022-12-06T13:54:37.314Z,7.30
2022-12-06T13:57:31.753Z,7.40
2022-12-06T14:00:00.050Z,7.30
2022-12-06T14:02:52.662Z,7.40
2022-12-06T14:06:07.414Z,7.30
2022-12-06T14:08:42.736Z,7.30
2022-12-06T14:11:21.990Z,7.20
2022-12-06T14:14:00.096Z,7.20
2022-12-06T14:16:33.582Z,7.20
2022-12-06T14:19:03.847Z,7.10
2022-12-06T14:21:37.743Z,7.10
2022-12-06T14:24:06.154Z,7.00
2022-12-06T14:26:35.505Z,6.90
2022-12-06T14:29:03.733Z,6.80
2022-12-06T14:31:39.286Z,6.70
2022-12-06T14:34:07.368Z,6.60
2022-12-06T14:36:41.431Z,6.60
2022-12-06T14:39:17.211Z,6.50
2022-12-06T14:42:10.439Z,6.50
2022-12-06T14:44:38.673Z,6.40
2022-12-06T14:47:08.145Z,6.30
2022-12-06T14:50:03.197Z,6.40
2022-12-06T14:52:33.151Z,6.30
2022-12-06T14:55:17.228Z,6.40
2022-12-06T14:57:48.104Z,6.40
2022-12-06T15:00:26.703Z,6.40
2022-12-06T15:03:24.088Z,6.40
2022-12-06T15:06:09.188Z,6.40
2022-12-06T15:08:40.608Z,6.40
2022-12-06T15:11:43.924Z,6.40
2022-12-06T15:14:15.097Z,6.30
2022-12-06T15:16:45.276Z,6.30
2022-12-06T15:19:15.330Z,6.30
2022-12-06T15:21:43.630Z,6.20
2022-12-06T15:24:21.260Z,6.30
2022-12-06T15:26:49.874Z,6.20
2022-12-06T15:29:18.482Z,6.20
2022-12-06T15:31:49.676Z,6.70
2022-12-06T15:34:24.986Z,6.20
2022-12-06T15:37:09.013Z,6.20
2022-12-06T15:39:42.831Z,6.10
2022-12-06T15:42:17.024Z,6.10
2022-12-06T15:44:49.103Z,6.10
2022-12-06T15:47:28.706Z,6.00
2022-12-06T15:49:58.323Z,6.00
2022-12-06T15:52:27.506Z,6.10
2022-12-06T15:54:57.660Z,6.20
2022-12-06T15:57:25.647Z,6.10
2022-12-06T15:59:53.725Z,6.10
2022-12-06T16:02:21.717Z,6.10
2022-12-06T16:04:51.302Z,6.00
2022-12-06T16:07:19.715Z,6.00
2022-12-06T16:09:48.676Z,5.90
2022-12-06T16:12:18.407Z,5.90
2022-12-06T16:14:46.481Z,5.90
2022-12-06T16:17:14.518Z,5.90
2022-12-06T16:19:59.757Z,5.90
2022-12-06T16:22:41.683Z,5.90
2022-12-06T16:25:10.164Z,5.80
2022-12-06T16:27:39.582Z,5.70
2022-12-06T16:30:08.965Z,5.70
2022-12-06T16:32:36.949Z,5.70
2022-12-06T16:35:05.327Z,5.80
2022-12-06T16:37:33.299Z,5.70
2022-12-06T16:40:01.313Z,5.80
2022-12-06T16:42:29.299Z,5.80
2022-12-06T16:44:58.954Z,5.80
2022-12-06T16:49:53.973Z,5.80
2022-12-06T16:52:21.964Z,5.90
2022-12-06T16:54:49.905Z,5.80
2022-12-06T16:57:19.538Z,5.70
2022-12-06T16:59:47.588Z,5.70
2022-12-06T17:02:29.236Z,5.60
2022-12-06T17:04:58.881Z,5.60
2022-12-06T17:07:27.186Z,5.60
2022-12-06T17:09:55.295Z,5.60
2022-12-06T17:12:23.265Z,5.60
2022-12-06T17:14:51.581Z,5.60
2022-12-06T17:17:25.920Z,5.70
2022-12-06T17:19:54.537Z,5.70
2022-12-06T17:22:22.723Z,5.70
2022-12-06T17:24:50.875Z,5.80
2022-12-06T17:27:19.075Z,5.80
2022-12-06T17:29:47.052Z,5.70
2022-12-06T17:32:15.330Z,5.70
2022-12-06T17:34:44.716Z,5.60
2022-12-06T17:37:12.670Z,5.60
2022-12-06T17:39:40.808Z,5.50
2022-12-06T17:42:26.380Z,5.50
2022-12-06T17:44:54.430Z,5.50
2022-12-06T17:47:22.421Z,5.50
2022-12-06T17:49:52.680Z,5.50
2022-12-06T17:52:20.660Z,5.50
2022-12-06T17:54:48.630Z,5.60
2022-12-06T17:57:18.463Z,5.50
2022-12-06T17:59:48.270Z,5.40
2022-12-06T18:02:18.664Z,5.40
2022-12-06T18:04:48.438Z,5.30
2022-12-06T18:07:18.771Z,5.20
2022-12-06T18:09:47.017Z,5.30
2022-12-06T18:12:15.827Z,5.30
2022-12-06T18:14:44.121Z,5.20
2022-12-06T18:17:12.462Z,5.10
2022-12-06T18:19:41.427Z,5.10
2022-12-06T18:22:09.682Z,5.20
2022-12-06T18:24:39.103Z,5.20
2022-12-06T18:27:07.654Z,5.20
2022-12-06T18:29:36.123Z,5.30
2022-12-06T18:32:04.849Z,5.20
2022-12-06T18:34:32.882Z,5.10
2022-12-06T18:37:01.319Z,5.10
2022-12-06T18:39:29.315Z,5.00
2022-12-06T18:41:58.623Z,4.90
2022-12-06T18:44:26.839Z,5.00
2022-12-06T18:46:54.887Z,5.00
2022-12-06T18:49:22.897Z,5.00
2022-12-06T18:51:50.881Z,5.00
2022-12-06T18:54:18.907Z,5.00
2022-12-06T18:56:46.872Z,5.00
2022-12-06T18:59:16.300Z,5.10
2022-12-06T19:01:44.429Z,5.00
2022-12-06T19:04:14.932Z,4.90
2022-12-06T19:06:45.099Z,4.90
2022-12-06T19:09:14.902Z,4.90
2022-12-06T19:11:45.864Z,4.90
2022-12-06T19:14:16.313Z,4.80
2022-12-06T19:16:46.311Z,4.80
2022-12-06T19:19:17.249Z,4.70
2022-12-06T19:21:46.087Z,4.70
2022-12-06T19:24:16.044Z,4.70
2022-12-06T19:26:44.150Z,4.70
2022-12-06T19:29:12.174Z,4.70
2022-12-06T19:31:41.509Z,4.70
2022-12-06T19:34:16.561Z,4.70
2022-12-06T19:36:44.866Z,4.60
2022-12-06T19:39:13.912Z,4.60
2022-12-06T19:41:59.998Z,4.60
2022-12-06T19:44:29.254Z,4.60
2022-12-06T19:46:58.860Z,4.60
2022-12-06T19:49:27.667Z,4.50
2022-12-06T19:51:55.914Z,4.50
2022-12-06T19:54:26.019Z,4.50
2022-12-06T19:56:56.832Z,4.60
2022-12-06T19:59:26.880Z,4.60
2022-12-06T20:01:58.035Z,4.70
2022-12-06T20:04:30.152Z,4.70
2022-12-06T20:06:58.166Z,4.70
2022-12-06T20:09:27.908Z,4.70
2022-12-06T20:12:02.895Z,4.70
2022-12-06T20:14:35.036Z,4.60
2022-12-06T20:17:03.809Z,4.60
2022-12-06T20:19:33.823Z,4.60
2022-12-06T20:22:01.868Z,4.50
2022-12-06T20:24:29.899Z,4.50
2022-12-06T20:26:57.859Z,4.50
2022-12-06T20:29:29.915Z,4.50
2022-12-06T20:31:59.471Z,4.30
2022-12-06T20:34:29.709Z,4.40
2022-12-06T20:36:59.126Z,4.50
2022-12-06T20:39:28.636Z,4.50
2022-12-06T20:41:56.958Z,4.50
2022-12-06T20:44:24.918Z,4.40
2022-12-06T20:46:54.166Z,4.40
2022-12-06T20:49:22.334Z,4.50
2022-12-06T20:51:53.280Z,4.40
2022-12-06T20:54:23.329Z,4.40
2022-12-06T20:56:53.227Z,4.50
2022-12-06T20:59:21.442Z,4.50
2022-12-06T21:01:50.013Z,4.40
2022-12-06T21:04:18.595Z,4.40
2022-12-06T21:06:46.603Z,4.40
2022-12-06T21:09:14.749Z,4.50
2022-12-06T21:11:44.091Z,4.50
2022-12-06T21:14:14.413Z,4.50
2022-12-06T21:16:43.427Z,4.50
2022-12-06T21:19:14.112Z,4.50
2022-12-06T21:21:45.849Z,4.50
2022-12-06T21:24:15.982Z,4.40
2022-12-06T21:26:45.730Z,4.30
2022-12-06T21:29:16.935Z,4.40
2022-12-06T21:31:45.138Z,4.40
2022-12-06T21:34:13.504Z,4.50
2022-12-06T21:36:41.862Z,4.40
2022-12-06T21:39:11.431Z,4.40
2022-12-06T21:41:39.475Z,4.50
2022-12-06T21:44:08.925Z,4.50
2022-12-06T21:46:36.954Z,4.40
2022-12-06T21:49:04.983Z,4.30
2022-12-06T21:51:33.313Z,4.30
2022-12-06T21:54:01.559Z,4.40
2022-12-06T21:56:31.558Z,4.20
2022-12-06T21:59:01.252Z,4.20
2022-12-06T22:01:32.596Z,4.20
2022-12-06T22:04:02.248Z,4.30
2022-12-06T22:06:31.496Z,4.30
2022-12-06T22:09:01.403Z,4.90
2022-12-06T22:11:30.809Z,4.30
2022-12-06T22:13:59.598Z,4.40
2022-12-06T22:16:28.511Z,4.40
2022-12-06T22:18:58.184Z,4.30
2022-12-06T22:21:30.420Z,4.30
2022-12-06T22:23:59.210Z,4.30
2022-12-06T22:26:29.300Z,4.30
2022-12-06T22:28:58.565Z,4.20
2022-12-06T22:31:28.826Z,4.20
2022-12-06T22:33:59.413Z,4.30
2022-12-06T22:36:28.718Z,4.30
2022-12-06T22:38:58.395Z,4.40
2022-12-06T22:41:26.943Z,4.40
2022-12-06T22:43:56.522Z,4.50
2022-12-06T22:46:26.255Z,4.40
2022-12-06T22:48:55.208Z,4.40
2022-12-06T22:51:26.070Z,4.30
2022-12-06T22:53:56.803Z,4.30
2022-12-06T22:56:26.784Z,4.30
2022-12-06T22:58:55.093Z,4.40
2022-12-06T23:01:24.680Z,4.20
2022-12-06T23:03:54.429Z,4.30
2022-12-06T23:06:25.942Z,4.40
2022-12-06T23:08:55.013Z,4.50
2022-12-06T23:11:25.310Z,4.50
2022-12-06T23:13:53.804Z,4.50
2022-12-06T23:16:23.426Z,4.60
2022-12-06T23:18:52.049Z,4.60
2022-12-06T23:21:21.689Z,4.50
2022-12-06T23:23:53.325Z,4.40
2022-12-06T23:26:23.540Z,4.40
2022-12-06T23:28:51.988Z,4.40
2022-12-06T23:31:22.831Z,4.30
2022-12-06T23:33:54.147Z,4.30
2022-12-06T23:36:23.921Z,4.30
2022-12-06T23:38:53.632Z,4.20
2022-12-06T23:41:23.742Z,4.20
2022-12-06T23:43:51.969Z,4.40
2022-12-06T23:46:22.928Z,4.50
2022-12-06T23:48:51.264Z,4.30
2022-12-06T23:51:20.817Z,4.20
2022-12-06T23:53:51.810Z,4.10
2022-12-06T23:56:22.675Z,4.10
2022-12-06T23:58:51.886Z,4.00
